Kerken UL

DE-0200 · North Rhine-Westphalia, 德国

罗盘
风向 的 Kerken UL 2/20
风: 4 kt, 2 beaufort

4 kt

1 kt
改变
0 ft 1.000 2.000 3.000 4.000 5.000
Cloud Cloud Cloud Cloud
SCT 3.400
METAR EDLN 221220Z VRB04KT 9999 SCT034 09/01 Q1023

METAR Kerken UL - DE-0200

Kerken UL是,德国中的小机场。 该机场位于纬度51,43943和经度6,44594。 该机场有一条跑道: 2/20. 这个机场没有ICAO代码,我们使用DE-0200作为参考。 机场在Langen FIR中。

该航空气象观测是针对Mönchengladbach Airport在2024年4月22日 14:20, 当地时间进行的。

机场观察

可变方向的风很小或没有风。

可见度为10 km 或者更多。

有疏云,零星散落的云朵在3.400 ft的高度。 没有观察到天花板。

温度为9 °C,阵风为7 °C。 露点为1 °C,相对湿度为58%。 海平面上的气压为1023 hPa (QNH)。

白天

今天,太阳从06:22升起,在20:42降落。 这适用于Kerken UL,世界夏令时可能有所不同。 当地时间与世界标准时间之间的时差为+2 小时。 夏令时目前正在进行中。

公司介绍

我们没有关于这个机场的公司信息。

体会

到Vliegles.nl去找飞行课程,跳伞和其他飞行体验。 浏览页面,了解Kerken UL附近所有可用的活动。 你也可以使用搜索功能来寻找你所在地附近的特定飞行课程、跳伞或其他飞行体验。

跑道

Id 标题 侧风 逆风 侧风 %
2/20 016°-196° 1 kt 4 kt 28 %

逆风成分最大的方向会被突出显示,并用于横风计算。 这并不一定意味着这个方向在使用。

乌云

3.400 ft SCT 疏云,零星散落的云朵

温度 & 天气

温度 9 °C
露点 1 °C
相对湿度 58%
风寒 7 °C
Kp-index 1 (0-9)

白天

日出
06:22
中午
13:32
日落
20:42 (6:01)

小工具

你想在你的网站上有一个关于Kerken UL的当前航空天气(METAR)的小部件吗?

显示HTML代码
报告变更